ENDR

Draugen Airport

Norway
METAR ENDR 172220Z AUTO 20028KT 13/11 Q1004
Observed Flight Rules
Aug-17 @ 22:20 UTC (16 minutes ago)
Wind
200° at 28 knots
Temperatures Readings
Current 13°C / 55°F
Dewpoint 11°C / 52°F
Humidity 88%
Altimeter 29.65" Hg
Pressure 1004 hPa
Elevation 50
METAR ENDR 172220Z AUTO 20028KT 13/11 Q1004
Observed Flight Rules
Aug-17 @ 22:20 UTC
(16 minutes ago)
Wind
200° at 28 knots
Temperature Dewpoint
13°C / 55°F 11°C / 52°F
Humidity Altimeter Pressure
88% 29.65" Hg 1004 hPa